Time;durP1;ratioP1;P1;durP2;ratioP2;P2;SDS_P1;SDS_P2;PMS_P1;PMS_P2;Temp;Humidity;BMP_temperature;BMP_pressure;BME280_temperature;BME280_humidity;BME280_pressure;Samples;Min_cycle;Max_cycle;Signal;HPM_P1;HPM_P2
2023/08/22 00:00:55;;;;;;;;;;;;;;;31.10;49.21;101510.34;106800;1267;25392;-49
2023/08/22 00:03:22;;;;;;;;;;;;;;;31.05;49.17;101509.95;106920;1264;25307;-49
2023/08/22 00:05:49;;;;;;;;;;;;;;;31.00;49.09;101511.69;106833;1268;25325;-49
2023/08/22 00:08:16;;;;;;;;;;;;;;;31.02;48.79;101507.21;106825;1256;24269;-49
2023/08/22 00:10:43;;;;;;;;;;;;;;;31.02;49.08;101506.45;106801;1263;25296;-49
2023/08/22 00:13:10;;;;;;;;;;;;;;;31.04;48.94;101510.27;106636;1270;25386;-49
2023/08/22 00:15:37;;;;;;;;;;;;;;;31.04;49.15;101514.05;106791;1267;25376;-49
2023/08/22 00:18:04;;;;;;;;;;;;;;;31.02;49.51;101512.77;106851;1267;25300;-50
2023/08/22 00:20:31;;;;;;;;;;;;;;;31.00;49.62;101510.98;106834;1265;24041;-49
2023/08/22 00:22:58;;;;;;;;;;;;;;;30.96;49.46;101511.94;106739;1259;25342;-49
2023/08/22 00:25:24;;;;;;;;;;;;;;;30.91;49.06;101514.34;106859;1268;25783;-50
2023/08/22 00:27:51;;;;;;;;;;;;;;;30.88;49.40;101511.81;106800;1269;25424;-49
2023/08/22 00:30:18;;;;;;;;;;;;;;;30.84;49.84;101509.84;106769;1267;25340;-49
2023/08/22 00:32:45;;;;;;;;;;;;;;;30.81;49.93;101509.05;106815;1260;25489;-49
2023/08/22 00:35:14;;;;;;;;;;;;;;;30.78;50.17;101510.20;106592;1259;334292;-49
2023/08/22 00:37:41;;;;;;;;;;;;;;;30.76;49.96;101513.33;106882;1262;25306;-50
2023/08/22 00:40:08;;;;;;;;;;;;;;;30.72;49.48;101516.34;106694;1267;25344;-49
2023/08/22 00:42:35;;;;;;;;;;;;;;;30.70;49.36;101516.40;106830;1258;25465;-49
2023/08/22 00:45:03;;;;;;;;;;;;;;;30.68;49.77;101516.53;106640;1272;25325;-49
2023/08/22 00:47:32;;;;;;;;;;;;;;;30.68;50.07;101519.45;106988;1259;25325;-49
2023/08/22 00:49:59;;;;;;;;;;;;;;;30.66;50.23;101514.40;106758;1272;25316;-49
2023/08/22 00:52:25;;;;;;;;;;;;;;;30.65;50.34;101513.08;106766;1267;25393;-49
2023/08/22 00:54:52;;;;;;;;;;;;;;;30.63;50.57;101511.66;106589;1262;25422;-49
2023/08/22 00:57:21;;;;;;;;;;;;;;;30.61;50.79;101509.85;106873;1259;25340;-49
2023/08/22 00:59:48;;;;;;;;;;;;;;;30.59;50.77;101510.25;106849;1268;25353;-50
2023/08/22 01:02:15;;;;;;;;;;;;;;;30.56;50.91;101511.95;106838;1262;22526;-49
2023/08/22 01:04:43;;;;;;;;;;;;;;;30.52;51.13;101511.79;106769;1267;25367;-49
2023/08/22 01:07:28;;;;;;;;;;;;;;;30.47;51.08;101513.99;106801;1269;25393;-49
2023/08/22 01:10:16;;;;;;;;;;;;;;;30.43;51.00;101514.39;106810;1268;25341;-49
2023/08/22 01:12:56;;;;;;;;;;;;;;;30.41;51.34;101513.36;106474;1270;25341;-49
2023/08/22 01:15:24;;;;;;;;;;;;;;;30.39;51.62;101513.13;106683;1259;25334;-49
2023/08/22 01:17:56;;;;;;;;;;;;;;;30.38;51.66;101519.35;106740;1265;25465;-49
2023/08/22 01:20:24;;;;;;;;;;;;;;;30.36;51.61;101517.56;106419;1259;25434;-50
2023/08/22 01:22:51;;;;;;;;;;;;;;;30.33;51.26;101521.07;106486;1261;24275;-50
2023/08/22 01:25:18;;;;;;;;;;;;;;;30.31;50.76;101521.26;106447;1267;25302;-49
2023/08/22 01:27:48;;;;;;;;;;;;;;;30.30;50.45;101516.70;106509;1262;22524;-48
2023/08/22 01:30:35;;;;;;;;;;;;;;;30.28;50.30;101519.54;106533;1262;25402;-48
2023/08/22 01:33:07;;;;;;;;;;;;;;;30.26;50.77;101519.89;106431;1275;25344;-49
2023/08/22 01:35:34;;;;;;;;;;;;;;;30.23;50.65;101516.07;106420;1268;25345;-48
2023/08/22 01:38:01;;;;;;;;;;;;;;;30.20;50.85;101517.45;106455;1271;22643;-50
2023/08/22 01:40:28;;;;;;;;;;;;;;;30.18;51.17;101522.25;106580;1268;25402;-49
2023/08/22 01:42:56;;;;;;;;;;;;;;;30.17;51.50;101520.19;106427;1275;25421;-48
2023/08/22 01:45:23;;;;;;;;;;;;;;;30.15;51.21;101520.27;106481;1272;25313;-49
2023/08/22 01:47:49;;;;;;;;;;;;;;;30.10;51.13;101519.23;106336;1273;25495;-49
2023/08/22 01:50:16;;;;;;;;;;;;;;;30.07;50.99;101522.59;106137;1280;25390;-49
2023/08/22 01:52:43;;;;;;;;;;;;;;;30.05;51.44;101522.09;106589;1274;25306;-48
2023/08/22 01:55:12;;;;;;;;;;;;;;;30.02;51.50;101524.11;106761;1269;25340;-49
2023/08/22 01:57:39;;;;;;;;;;;;;;;29.98;51.27;101524.72;106812;1270;25316;-49
2023/08/22 02:00:07;;;;;;;;;;;;;;;29.96;51.44;101521.70;106819;1259;25370;-48
2023/08/22 02:02:38;;;;;;;;;;;;;;;29.94;51.90;101522.04;106589;1271;25372;-49
2023/08/22 02:05:05;;;;;;;;;;;;;;;29.92;51.62;101519.13;106753;1259;25353;-49
2023/08/22 02:07:33;;;;;;;;;;;;;;;29.90;51.68;101521.27;106803;1263;25465;-49
2023/08/22 02:10:00;;;;;;;;;;;;;;;29.89;51.52;101520.88;106783;1256;25347;-49
2023/08/22 02:12:27;;;;;;;;;;;;;;;29.86;51.64;101521.69;106823;1269;25462;-49
2023/08/22 02:14:54;;;;;;;;;;;;;;;29.84;51.87;101520.48;106757;1267;25380;-50
2023/08/22 02:17:21;;;;;;;;;;;;;;;29.82;52.14;101522.00;106723;1259;25465;-49
2023/08/22 02:19:48;;;;;;;;;;;;;;;29.83;52.42;101525.18;106857;1268;25302;-51
2023/08/22 02:22:14;;;;;;;;;;;;;;;29.83;52.84;101524.66;106741;1271;25322;-50
2023/08/22 02:24:43;;;;;;;;;;;;;;;29.81;53.28;101525.51;106791;1269;24391;-49
2023/08/22 02:27:10;;;;;;;;;;;;;;;29.81;53.36;101526.66;106849;1267;25321;-50
2023/08/22 02:29:37;;;;;;;;;;;;;;;29.79;53.33;101529.98;106740;1267;25341;-51
2023/08/22 02:32:04;;;;;;;;;;;;;;;29.78;53.34;101530.13;106723;1267;25331;-49
2023/08/22 02:34:31;;;;;;;;;;;;;;;29.77;53.64;101527.73;106905;1268;25462;-49
2023/08/22 02:36:58;;;;;;;;;;;;;;;29.74;53.86;101526.66;106875;1269;25316;-50
2023/08/22 02:39:25;;;;;;;;;;;;;;;29.73;53.96;101529.14;106715;1271;25376;-49
2023/08/22 02:41:52;;;;;;;;;;;;;;;29.72;54.02;101528.13;106751;1270;25323;-48
2023/08/22 02:44:19;;;;;;;;;;;;;;;29.71;53.27;101529.11;106655;1272;25421;-51
2023/08/22 02:46:46;;;;;;;;;;;;;;;29.70;52.91;101532.73;106590;1262;25389;-52
2023/08/22 02:49:13;;;;;;;;;;;;;;;29.70;52.97;101540.61;106457;1266;25488;-50
2023/08/22 02:51:40;;;;;;;;;;;;;;;29.70;53.56;101542.91;106533;1269;25497;-49
2023/08/22 02:54:07;;;;;;;;;;;;;;;29.69;53.88;101544.63;106609;1266;22469;-51
2023/08/22 02:56:33;;;;;;;;;;;;;;;29.67;53.80;101548.23;106505;1262;25314;-51
2023/08/22 02:59:00;;;;;;;;;;;;;;;29.66;53.61;101549.25;106391;1271;25469;-49
2023/08/22 03:01:27;;;;;;;;;;;;;;;29.65;53.74;101548.07;106380;1265;25415;-50
2023/08/22 03:03:55;;;;;;;;;;;;;;;29.65;53.92;101553.97;106433;1265;25465;-50
2023/08/22 03:06:22;;;;;;;;;;;;;;;29.64;53.71;101557.27;106653;1271;25469;-50
2023/08/22 03:08:49;;;;;;;;;;;;;;;29.63;53.67;101560.98;106660;1275;25356;-50
2023/08/22 03:11:16;;;;;;;;;;;;;;;29.62;53.62;101560.53;106777;1272;25457;-50
2023/08/22 03:13:43;;;;;;;;;;;;;;;29.60;53.62;101564.79;106809;1267;25293;-50
2023/08/22 03:16:11;;;;;;;;;;;;;;;29.57;53.32;101563.45;106863;1263;25523;-49
2023/08/22 03:18:42;;;;;;;;;;;;;;;29.52;53.11;101562.81;106795;1260;25289;-50
2023/08/22 03:21:09;;;;;;;;;;;;;;;29.49;53.14;101567.61;106738;1269;25389;-50
2023/08/22 03:23:37;;;;;;;;;;;;;;;29.47;53.14;101569.40;106745;1265;22514;-50
2023/08/22 03:26:10;;;;;;;;;;;;;;;29.43;52.89;101570.82;106782;1256;25913;-50
2023/08/22 03:28:37;;;;;;;;;;;;;;;29.39;52.75;101569.33;106797;1268;25379;-50
2023/08/22 03:31:04;;;;;;;;;;;;;;;29.36;52.62;101573.60;106632;1262;25231;-49
2023/08/22 03:33:33;;;;;;;;;;;;;;;29.32;52.59;101576.75;106756;1259;25334;-50
2023/08/22 03:36:01;;;;;;;;;;;;;;;29.31;52.60;101574.88;106879;1261;22550;-49
2023/08/22 03:38:28;;;;;;;;;;;;;;;29.32;52.67;101572.15;106789;1268;22524;-50
2023/08/22 03:40:55;;;;;;;;;;;;;;;29.32;52.71;101571.44;106815;1269;23180;-49
2023/08/22 03:43:23;;;;;;;;;;;;;;;29.31;52.82;101573.27;106769;1272;25386;-49
2023/08/22 03:45:50;;;;;;;;;;;;;;;29.32;52.81;101572.32;106830;1267;25313;-49
2023/08/22 03:48:17;;;;;;;;;;;;;;;29.31;52.75;101572.25;106777;1260;25316;-50
2023/08/22 03:50:44;;;;;;;;;;;;;;;29.29;52.81;101572.75;106827;1266;24370;-50
2023/08/22 03:53:12;;;;;;;;;;;;;;;29.28;53.05;101567.84;106563;1265;25363;-50
2023/08/22 03:55:40;;;;;;;;;;;;;;;29.27;52.82;101569.84;106805;1259;25314;-49
2023/08/22 03:58:07;;;;;;;;;;;;;;;29.27;53.00;101572.17;106364;1271;25341;-50
2023/08/22 04:00:34;;;;;;;;;;;;;;;29.27;52.87;101574.01;106642;1259;25487;-50
2023/08/22 04:03:01;;;;;;;;;;;;;;;29.27;53.17;101573.42;106670;1267;25334;-49
2023/08/22 04:05:28;;;;;;;;;;;;;;;29.27;53.30;101574.35;106861;1266;25379;-50
2023/08/22 04:07:55;;;;;;;;;;;;;;;29.26;53.02;101575.31;106868;1268;25295;-50
2023/08/22 04:10:22;;;;;;;;;;;;;;;29.25;53.25;101573.84;106774;1259;25331;-50
2023/08/22 04:12:49;;;;;;;;;;;;;;;29.24;53.52;101574.98;106731;1269;25541;-50
2023/08/22 04:15:16;;;;;;;;;;;;;;;29.24;53.32;101577.67;106830;1259;25334;-50
2023/08/22 04:17:42;;;;;;;;;;;;;;;29.24;53.17;101583.40;106819;1271;25462;-50
2023/08/22 04:20:10;;;;;;;;;;;;;;;29.24;53.28;101583.20;106572;1263;25335;-50
2023/08/22 04:22:39;;;;;;;;;;;;;;;29.24;53.00;101591.42;106856;1259;22505;-51
2023/08/22 04:25:10;;;;;;;;;;;;;;;29.25;53.07;101590.80;106599;1271;25332;-50
2023/08/22 04:27:38;;;;;;;;;;;;;;;29.28;53.23;101593.27;106787;1268;25213;-50
2023/08/22 04:30:06;;;;;;;;;;;;;;;29.29;52.86;101593.52;106713;1262;25316;-49
2023/08/22 04:32:33;;;;;;;;;;;;;;;29.29;52.81;101594.39;106642;1272;25319;-50
2023/08/22 04:35:01;;;;;;;;;;;;;;;29.30;52.77;101598.77;106603;1262;25423;-50
2023/08/22 04:37:30;;;;;;;;;;;;;;;29.31;52.91;101599.72;106480;1271;25364;-49
2023/08/22 04:39:57;;;;;;;;;;;;;;;29.33;53.25;101602.92;106679;1273;22510;-49
2023/08/22 04:42:36;;;;;;;;;;;;;;;29.36;53.03;101604.48;106544;1271;25381;-49
2023/08/22 04:45:06;;;;;;;;;;;;;;;29.37;52.77;101606.57;106719;1265;22510;-49
2023/08/22 04:47:33;;;;;;;;;;;;;;;29.38;52.48;101603.80;106576;1272;26486;-50
2023/08/22 04:50:00;;;;;;;;;;;;;;;29.38;52.61;101603.92;106335;1278;25501;-50
2023/08/22 04:52:27;;;;;;;;;;;;;;;29.40;52.70;101602.34;106529;1272;25331;-49
2023/08/22 04:54:54;;;;;;;;;;;;;;;29.42;52.72;101602.20;106451;1275;25358;-48
2023/08/22 04:57:23;;;;;;;;;;;;;;;29.45;52.66;101601.73;106496;1275;23882;-48
2023/08/22 04:59:52;;;;;;;;;;;;;;;29.48;52.69;101603.95;106323;1267;25375;-49
2023/08/22 05:02:21;;;;;;;;;;;;;;;29.51;52.69;101606.19;106435;1265;25581;-49
2023/08/22 05:04:48;;;;;;;;;;;;;;;29.53;52.27;101608.92;106557;1269;25399;-50
2023/08/22 05:07:15;;;;;;;;;;;;;;;29.54;52.45;101609.11;106644;1267;25569;-49
2023/08/22 05:09:42;;;;;;;;;;;;;;;29.57;52.62;101610.52;106651;1275;25300;-49
2023/08/22 05:12:09;;;;;;;;;;;;;;;29.58;52.40;101605.72;106640;1262;25280;-49
2023/08/22 05:14:36;;;;;;;;;;;;;;;29.60;52.05;101605.16;106266;1269;25502;-50
2023/08/22 05:17:03;;;;;;;;;;;;;;;29.63;51.89;101606.70;106708;1271;25467;-49
2023/08/22 05:19:31;;;;;;;;;;;;;;;29.67;51.82;101604.57;106656;1263;25324;-49
2023/08/22 05:21:57;;;;;;;;;;;;;;;29.71;51.92;101608.15;106718;1273;25293;-50
2023/08/22 05:24:25;;;;;;;;;;;;;;;29.76;52.04;101609.31;106811;1267;25492;-48
2023/08/22 05:26:52;;;;;;;;;;;;;;;29.81;52.00;101616.03;106825;1269;25341;-49
2023/08/22 05:29:21;;;;;;;;;;;;;;;29.84;51.91;101617.40;106825;1269;25462;-49
2023/08/22 05:31:48;;;;;;;;;;;;;;;29.86;52.37;101618.29;106436;1272;25382;-49
2023/08/22 05:34:15;;;;;;;;;;;;;;;29.89;52.37;101622.67;106816;1259;25334;-50
2023/08/22 05:36:43;;;;;;;;;;;;;;;29.92;52.44;101620.95;106746;1268;25341;-50
2023/08/22 05:39:10;;;;;;;;;;;;;;;29.95;52.38;101622.29;106790;1259;24215;-50
2023/08/22 05:41:37;;;;;;;;;;;;;;;29.99;52.37;101628.39;106792;1269;25392;-50
2023/08/22 05:44:05;;;;;;;;;;;;;;;30.04;52.24;101629.02;106709;1264;25334;-50
2023/08/22 05:46:33;;;;;;;;;;;;;;;30.09;52.17;101632.27;106702;1268;25767;-50
2023/08/22 05:49:01;;;;;;;;;;;;;;;30.15;51.64;101637.27;106826;1259;22503;-49
2023/08/22 05:51:29;;;;;;;;;;;;;;;30.21;51.72;101635.84;106735;1270;25370;-49
2023/08/22 05:53:56;;;;;;;;;;;;;;;30.25;51.26;101635.98;106657;1259;25351;-49
2023/08/22 05:56:23;;;;;;;;;;;;;;;30.30;50.84;101636.85;106660;1268;22504;-50
2023/08/22 05:58:49;;;;;;;;;;;;;;;30.34;50.76;101638.58;106554;1269;25344;-49
2023/08/22 06:01:17;;;;;;;;;;;;;;;30.41;50.61;101639.77;106619;1272;25296;-50
2023/08/22 06:03:44;;;;;;;;;;;;;;;30.51;50.43;101639.36;106759;1269;25303;-50
2023/08/22 06:06:11;;;;;;;;;;;;;;;30.64;49.87;101643.55;106678;1262;25678;-50
2023/08/22 06:08:38;;;;;;;;;;;;;;;30.77;49.66;101640.75;106814;1265;25382;-50
2023/08/22 06:11:05;;;;;;;;;;;;;;;30.91;49.67;101640.52;106710;1259;25305;-50
2023/08/22 06:13:32;;;;;;;;;;;;;;;31.01;49.03;101638.83;106797;1262;25303;-50
2023/08/22 06:15:59;;;;;;;;;;;;;;;31.09;49.16;101633.92;106705;1269;22518;-50
2023/08/22 06:18:26;;;;;;;;;;;;;;;31.14;49.04;101638.11;106549;1272;25324;-49
2023/08/22 06:20:57;;;;;;;;;;;;;;;31.18;48.89;101635.82;106255;1267;22732;-49
2023/08/22 06:23:24;;;;;;;;;;;;;;;31.22;48.78;101640.79;106280;1269;22627;-49
2023/08/22 06:25:51;;;;;;;;;;;;;;;31.26;48.75;101639.37;106530;1272;25305;-51
2023/08/22 06:28:18;;;;;;;;;;;;;;;31.27;48.64;101641.57;106647;1276;25760;-51
2023/08/22 06:30:45;;;;;;;;;;;;;;;31.26;48.33;101639.65;106696;1262;22589;-50
2023/08/22 06:33:12;;;;;;;;;;;;;;;31.30;48.67;101641.81;106604;1269;24198;-51
2023/08/22 06:35:39;;;;;;;;;;;;;;;31.38;49.11;101639.13;106358;1273;25456;-50
2023/08/22 06:38:06;;;;;;;;;;;;;;;31.49;48.93;101637.34;106607;1269;25348;-49
2023/08/22 06:40:34;;;;;;;;;;;;;;;31.60;48.63;101637.48;106673;1272;25334;-50
2023/08/22 06:43:01;;;;;;;;;;;;;;;31.73;48.14;101638.86;106671;1272;25305;-50
2023/08/22 06:45:31;;;;;;;;;;;;;;;31.86;48.13;101641.69;106372;1278;25337;-50
2023/08/22 06:47:58;;;;;;;;;;;;;;;31.95;48.33;101640.17;106395;1281;25373;-50
2023/08/22 06:50:25;;;;;;;;;;;;;;;31.99;48.50;101641.40;106596;1274;25331;-49
2023/08/22 06:52:52;;;;;;;;;;;;;;;31.99;48.62;101647.10;106746;1264;25331;-49
2023/08/22 06:55:19;;;;;;;;;;;;;;;32.00;47.80;101646.48;106939;1268;25424;-50
2023/08/22 06:57:45;;;;;;;;;;;;;;;31.99;47.68;101642.45;106686;1261;25340;-49
2023/08/22 07:00:14;;;;;;;;;;;;;;;31.98;47.47;101642.71;106818;1270;25392;-49
2023/08/22 07:02:42;;;;;;;;;;;;;;;31.99;47.92;101643.33;106870;1256;25331;-48
2023/08/22 07:05:09;;;;;;;;;;;;;;;31.99;48.13;101643.30;106823;1263;25418;-49
2023/08/22 07:07:37;;;;;;;;;;;;;;;31.99;48.40;101639.39;106792;1267;25369;-50
2023/08/22 07:10:11;;;;;;;;;;;;;;;32.00;48.70;101637.64;106762;1275;22558;-49
2023/08/22 07:12:38;;;;;;;;;;;;;;;32.07;48.55;101638.20;106443;1273;23177;-49
2023/08/22 07:15:06;;;;;;;;;;;;;;;32.12;47.73;101638.39;106830;1257;24306;-49
2023/08/22 07:17:33;;;;;;;;;;;;;;;32.13;47.72;101639.25;106469;1271;22589;-49
2023/08/22 07:20:01;;;;;;;;;;;;;;;32.16;48.03;101640.06;106869;1259;25311;-50
2023/08/22 07:22:28;;;;;;;;;;;;;;;32.24;47.92;101641.11;106666;1270;25293;-49
2023/08/22 07:24:55;;;;;;;;;;;;;;;32.38;48.05;101639.85;106800;1267;25411;-50
2023/08/22 07:27:22;;;;;;;;;;;;;;;32.59;48.07;101641.52;106724;1272;25293;-50
2023/08/22 07:29:49;;;;;;;;;;;;;;;32.82;47.68;101642.08;106816;1260;25331;-49
2023/08/22 07:32:18;;;;;;;;;;;;;;;32.99;47.57;101637.59;106847;1263;25462;-49
2023/08/22 07:34:46;;;;;;;;;;;;;;;33.20;47.05;101638.11;106669;1269;25306;-50
2023/08/22 07:37:13;;;;;;;;;;;;;;;33.38;45.87;101638.91;106858;1262;25306;-49
2023/08/22 07:39:40;;;;;;;;;;;;;;;33.46;44.72;101638.77;106830;1270;25382;-49
2023/08/22 07:42:07;;;;;;;;;;;;;;;33.46;44.42;101639.48;106773;1269;22501;-50
2023/08/22 07:44:34;;;;;;;;;;;;;;;33.43;44.91;101638.16;106814;1268;24267;-49
2023/08/22 07:47:02;;;;;;;;;;;;;;;33.41;45.57;101640.04;106911;1260;25400;-50
2023/08/22 07:49:29;;;;;;;;;;;;;;;33.37;45.64;101641.50;106780;1262;25331;-49
2023/08/22 07:51:56;;;;;;;;;;;;;;;33.30;45.73;101643.65;106765;1271;25465;-49
2023/08/22 07:54:23;;;;;;;;;;;;;;;33.26;45.98;101640.83;106770;1264;25391;-49
2023/08/22 07:56:50;;;;;;;;;;;;;;;33.24;45.92;101641.75;106702;1274;25466;-49
2023/08/22 07:59:27;;;;;;;;;;;;;;;33.22;45.80;101643.05;106695;1265;25357;-49
2023/08/22 08:01:54;;;;;;;;;;;;;;;33.22;46.00;101636.60;106798;1266;25375;-49
2023/08/22 08:04:21;;;;;;;;;;;;;;;33.22;45.93;101632.87;106793;1269;25341;-49
2023/08/22 08:06:49;;;;;;;;;;;;;;;33.21;45.73;101634.23;106749;1265;25450;-48
2023/08/22 08:09:16;;;;;;;;;;;;;;;33.19;45.74;101635.98;106727;1272;25306;-49
2023/08/22 08:12:00;;;;;;;;;;;;;;;33.20;45.16;101627.45;106750;1264;25558;-50
2023/08/22 08:14:27;;;;;;;;;;;;;;;33.20;44.89;101630.48;106793;1269;25331;-49
2023/08/22 08:16:54;;;;;;;;;;;;;;;33.20;44.91;101634.10;106751;1270;25454;-49
2023/08/22 08:19:22;;;;;;;;;;;;;;;33.21;45.42;101632.98;106838;1262;23295;-49
2023/08/22 08:21:52;;;;;;;;;;;;;;;33.23;45.44;101636.29;106680;1271;25341;-49
2023/08/22 08:24:19;;;;;;;;;;;;;;;33.27;44.93;101634.67;106813;1263;25494;-49
2023/08/22 08:26:46;;;;;;;;;;;;;;;33.30;44.31;101630.78;106797;1266;23843;-50
2023/08/22 08:29:13;;;;;;;;;;;;;;;33.32;44.30;101632.13;106833;1260;25442;-50
2023/08/22 08:31:40;;;;;;;;;;;;;;;33.36;44.56;101629.45;106749;1273;25340;-49
2023/08/22 08:34:07;;;;;;;;;;;;;;;33.40;44.00;101630.63;106757;1273;25320;-49
2023/08/22 08:36:34;;;;;;;;;;;;;;;33.44;43.60;101628.34;106757;1260;25392;-50
2023/08/22 08:39:01;;;;;;;;;;;;;;;33.49;43.57;101626.41;106793;1275;25306;-49
2023/08/22 08:41:28;;;;;;;;;;;;;;;33.53;43.89;101623.79;106763;1275;25373;-49
2023/08/22 08:43:55;;;;;;;;;;;;;;;33.59;44.23;101623.04;106806;1263;25330;-50
2023/08/22 08:46:25;;;;;;;;;;;;;;;33.63;43.56;101625.11;106772;1275;25351;-49
2023/08/22 08:48:52;;;;;;;;;;;;;;;33.67;43.46;101622.95;106832;1269;25330;-50
2023/08/22 08:51:20;;;;;;;;;;;;;;;33.71;43.65;101620.02;106726;1267;25465;-49
2023/08/22 08:53:50;;;;;;;;;;;;;;;33.74;43.80;101618.83;106813;1260;25334;-49
2023/08/22 08:56:17;;;;;;;;;;;;;;;33.77;44.04;101613.40;106742;1269;25383;-49
2023/08/22 08:58:44;;;;;;;;;;;;;;;33.80;44.20;101613.92;106750;1275;25326;-50
2023/08/22 09:01:11;;;;;;;;;;;;;;;33.83;43.86;101611.30;106778;1270;25302;-50
2023/08/22 09:03:38;;;;;;;;;;;;;;;33.85;43.68;101609.13;106527;1278;25392;-49
2023/08/22 09:06:05;;;;;;;;;;;;;;;33.88;42.83;101605.36;106825;1269;25377;-48
2023/08/22 09:08:32;;;;;;;;;;;;;;;33.94;41.69;101607.09;106816;1272;25392;-49
2023/08/22 09:10:59;;;;;;;;;;;;;;;34.00;41.15;101604.27;106835;1270;25305;-49
2023/08/22 09:13:29;;;;;;;;;;;;;;;34.05;40.20;101604.97;106879;1270;25306;-49
2023/08/22 09:16:16;;;;;;;;;;;;;;;34.12;39.94;101602.81;106373;1278;25311;-49
2023/08/22 09:18:43;;;;;;;;;;;;;;;34.18;39.35;101602.63;106762;1260;22640;-50
2023/08/22 09:21:10;;;;;;;;;;;;;;;34.24;39.07;101598.18;106742;1268;25315;-49
2023/08/22 09:23:37;;;;;;;;;;;;;;;34.31;38.27;101592.02;106859;1272;25303;-49
2023/08/22 09:26:04;;;;;;;;;;;;;;;34.37;37.43;101592.30;106595;1270;25529;-49
2023/08/22 09:28:38;;;;;;;;;;;;;;;34.42;37.12;101592.77;106808;1269;25330;-49
2023/08/22 09:31:04;;;;;;;;;;;;;;;34.48;36.55;101591.40;106888;1270;25365;-50
2023/08/22 09:33:45;;;;;;;;;;;;;;;34.55;36.40;101591.41;106820;1269;24201;-49
2023/08/22 09:36:12;;;;;;;;;;;;;;;34.62;36.55;101591.91;106752;1266;24253;-50
2023/08/22 09:38:53;;;;;;;;;;;;;;;34.68;36.23;101592.59;106818;1269;25330;-50
2023/08/22 09:41:23;;;;;;;;;;;;;;;34.76;36.54;101594.66;106471;1270;25445;-49
2023/08/22 09:44:00;;;;;;;;;;;;;;;34.83;36.75;101588.98;106713;1264;22523;-49
2023/08/22 09:46:27;;;;;;;;;;;;;;;34.89;36.90;101589.59;106786;1270;25356;-50
2023/08/22 09:48:59;;;;;;;;;;;;;;;34.93;36.79;101589.11;106543;1271;25330;-49
2023/08/22 09:51:26;;;;;;;;;;;;;;;34.97;36.93;101587.23;106696;1270;24199;-50
2023/08/22 09:53:59;;;;;;;;;;;;;;;34.98;37.14;101583.47;106330;1270;25395;-49
2023/08/22 09:56:26;;;;;;;;;;;;;;;35.02;36.92;101577.44;106470;1270;25445;-49
2023/08/22 09:58:53;;;;;;;;;;;;;;;35.09;36.14;101579.52;106803;1268;25306;-50
2023/08/22 10:01:20;;;;;;;;;;;;;;;35.15;36.03;101579.91;106817;1272;25382;-50
2023/08/22 10:03:56;;;;;;;;;;;;;;;35.22;36.40;101574.27;106844;1275;25363;-50
2023/08/22 10:06:31;;;;;;;;;;;;;;;35.28;35.55;101571.50;106805;1268;25454;-50
2023/08/22 10:09:13;;;;;;;;;;;;;;;35.34;34.58;101572.25;106806;1273;25324;-50
2023/08/22 10:11:50;;;;;;;;;;;;;;;35.38;34.14;101570.17;106899;1270;25385;-50
2023/08/22 10:14:19;;;;;;;;;;;;;;;35.42;34.16;101568.37;106902;1272;25327;-49
2023/08/22 10:16:46;;;;;;;;;;;;;;;35.46;34.21;101566.52;106789;1270;25305;-49
2023/08/22 10:19:13;;;;;;;;;;;;;;;35.50;34.23;101563.86;106680;1265;25312;-50
2023/08/22 10:21:43;;;;;;;;;;;;;;;35.55;34.37;101564.80;106686;1275;25292;-49
2023/08/22 10:24:26;;;;;;;;;;;;;;;35.60;33.94;101564.23;106784;1261;25327;-49
2023/08/22 10:27:02;;;;;;;;;;;;;;;35.65;33.48;101565.95;106768;1274;25324;-49
2023/08/22 10:29:51;;;;;;;;;;;;;;;35.70;32.46;101563.54;106819;1264;22844;-49
2023/08/22 10:32:21;;;;;;;;;;;;;;;35.76;31.75;101563.03;106355;1278;25319;-50
2023/08/22 10:34:48;;;;;;;;;;;;;;;35.81;32.04;101563.52;106370;1282;25322;-49
2023/08/22 10:37:15;;;;;;;;;;;;;;;35.85;32.74;101563.02;106403;1277;25385;-49
2023/08/22 10:39:43;;;;;;;;;;;;;;;35.89;32.95;101560.06;106435;1264;25350;-49
2023/08/22 10:42:13;;;;;;;;;;;;;;;35.92;32.62;101556.80;106201;1277;25498;-49
2023/08/22 10:44:40;;;;;;;;;;;;;;;35.97;32.90;101556.63;106337;1277;25461;-49
2023/08/22 10:47:07;;;;;;;;;;;;;;;36.01;33.36;101557.05;106483;1271;25316;-50
2023/08/22 10:49:35;;;;;;;;;;;;;;;36.04;33.31;101555.35;106445;1277;25469;-49
2023/08/22 10:52:06;;;;;;;;;;;;;;;36.05;32.53;101554.36;106410;1270;24595;-50
2023/08/22 10:54:47;;;;;;;;;;;;;;;36.06;32.77;101555.35;106520;1277;25323;-50
2023/08/22 10:57:17;;;;;;;;;;;;;;;36.06;32.32;101552.27;106478;1266;25308;-50
2023/08/22 10:59:59;;;;;;;;;;;;;;;36.07;32.53;101550.73;106415;1273;25403;-50
2023/08/22 11:02:30;;;;;;;;;;;;;;;36.10;32.72;101550.78;106387;1274;25451;-49
2023/08/22 11:04:57;;;;;;;;;;;;;;;36.11;32.93;101551.83;106371;1276;22516;-49
2023/08/22 11:07:25;;;;;;;;;;;;;;;36.12;32.90;101548.90;106433;1267;25313;-49
2023/08/22 11:09:53;;;;;;;;;;;;;;;36.11;32.57;101543.52;106576;1273;25410;-49
2023/08/22 11:12:20;;;;;;;;;;;;;;;36.11;31.83;101544.98;106765;1277;25365;-49
2023/08/22 11:14:48;;;;;;;;;;;;;;;36.12;31.26;101545.45;106888;1264;25452;-50
2023/08/22 11:17:15;;;;;;;;;;;;;;;36.12;31.98;101547.37;106756;1267;24420;-49
2023/08/22 11:19:42;;;;;;;;;;;;;;;36.15;32.28;101553.31;106507;1278;25462;-48
2023/08/22 11:22:12;;;;;;;;;;;;;;;36.19;31.89;101559.72;106734;1273;25327;-49
2023/08/22 11:24:42;;;;;;;;;;;;;;;36.25;34.22;101558.73;106769;1269;25311;-49
2023/08/22 11:27:09;;;;;;;;;;;;;;;36.28;37.45;101554.17;106830;1266;25340;-50
2023/08/22 11:29:47;;;;;;;;;;;;;;;36.30;38.77;101553.38;106825;1270;24234;-49
2023/08/22 11:32:30;;;;;;;;;;;;;;;36.31;38.74;101556.71;106764;1259;25394;-50
2023/08/22 11:35:04;;;;;;;;;;;;;;;36.30;38.63;101555.60;106821;1258;25369;-49
2023/08/22 11:37:31;;;;;;;;;;;;;;;36.26;37.92;101558.23;106864;1260;25330;-49
2023/08/22 11:39:59;;;;;;;;;;;;;;;36.20;38.02;101558.23;106872;1267;25380;-50
2023/08/22 11:42:26;;;;;;;;;;;;;;;36.14;39.54;101553.00;106734;1276;25325;-50
2023/08/22 11:44:53;;;;;;;;;;;;;;;36.06;40.47;101553.67;106853;1264;25210;-50
2023/08/22 11:47:20;;;;;;;;;;;;;;;35.98;40.43;101552.89;106770;1267;25437;-49
2023/08/22 11:49:50;;;;;;;;;;;;;;;35.89;41.00;101548.19;106822;1270;25397;-50
2023/08/22 11:52:17;;;;;;;;;;;;;;;35.78;41.25;101544.00;106662;1272;25382;-49
2023/08/22 11:54:45;;;;;;;;;;;;;;;35.69;41.64;101553.35;106805;1270;25340;-49
2023/08/22 11:57:14;;;;;;;;;;;;;;;35.63;41.86;101552.47;106926;1261;25275;-49
2023/08/22 11:59:43;;;;;;;;;;;;;;;35.57;41.98;101552.77;106899;1270;25469;-49
2023/08/22 12:02:11;;;;;;;;;;;;;;;35.50;42.05;101551.29;106899;1270;23275;-49
2023/08/22 12:04:42;;;;;;;;;;;;;;;35.42;42.02;101553.21;106744;1270;25334;-49
2023/08/22 12:07:09;;;;;;;;;;;;;;;35.34;42.16;101556.31;106803;1264;25322;-50
2023/08/22 12:09:37;;;;;;;;;;;;;;;35.25;42.52;101554.29;106700;1261;22504;-50
2023/08/22 12:12:14;;;;;;;;;;;;;;;35.18;42.84;101554.04;106775;1267;25357;-50
2023/08/22 12:14:41;;;;;;;;;;;;;;;35.12;42.90;101552.67;106783;1257;25296;-50
2023/08/22 12:17:08;;;;;;;;;;;;;;;35.09;43.01;101546.92;106829;1267;22626;-49
2023/08/22 12:19:35;;;;;;;;;;;;;;;35.05;43.18;101549.85;106706;1270;25462;-49
2023/08/22 12:22:02;;;;;;;;;;;;;;;35.03;43.48;101553.41;106747;1264;27195;-49
2023/08/22 12:24:29;;;;;;;;;;;;;;;35.01;43.93;101554.31;106836;1264;25493;-49
2023/08/22 12:26:56;;;;;;;;;;;;;;;35.00;44.23;101551.00;106991;1258;25330;-49
2023/08/22 12:29:23;;;;;;;;;;;;;;;34.99;44.25;101551.25;106876;1270;22526;-49
2023/08/22 12:31:50;;;;;;;;;;;;;;;34.98;44.47;101550.64;106747;1267;25312;-50